YYZ weather

Lester B. Pearson International Airport
Toronto, Ontario, Canada

Public forecast

Using degrees Celsius for public forecast. Weather courtesy of forecast.io.

METAR (pilot weather report)

Retrieved 2017/03/29 08:00 UTC (1 hour ago):

CYYZ 290800Z 01006KT 15SM SKC 01/M01 A3019 RMK SLP232

TAF (pilot weather forecast)

Retrieved 2017/03/29 09:42 UTC (0 seconds ago):

TAF CYYZ 290838Z 2909/3012 34005KT P6SM SKC FM291200 34008KT P6SM SCT040 FM291800 34012KT P6SM FEW040 SCT240 FM292300 36012KT P6SM BKN200 BECMG 3004/3006 04008KT FM301100 08010KT P6SM OVC120 RMK NXT FCST BY 291200Z